Time;durP1;ratioP1;P1;durP2;ratioP2;P2;SDS_P1;SDS_P2;PMS_P1;PMS_P2;Temp;Humidity;BMP_temperature;BMP_pressure;BME280_temperature;BME280_humidity;BME280_pressure;Samples;Min_cycle;Max_cycle;Signal;HPM_P1;HPM_P2
2021/04/04 00:01:47;;;;;;;12.37;6.30;;;2.00;97.30;;;;;;4999679;28;20203;-89
2021/04/04 00:04:13;;;;;;;12.53;6.30;;;2.00;97.30;;;;;;4999466;28;20177;-89
2021/04/04 00:06:39;;;;;;;10.07;6.10;;;2.00;97.30;;;;;;4999182;28;20672;-90
2021/04/04 00:09:05;;;;;;;10.73;6.00;;;1.90;97.30;;;;;;4999495;28;20420;-89
2021/04/04 00:11:31;;;;;;;12.10;5.70;;;1.90;97.30;;;;;;4999333;28;20486;-89
2021/04/04 00:13:57;;;;;;;11.57;6.10;;;1.90;97.30;;;;;;4999497;28;20234;-90
2021/04/04 00:16:22;;;;;;;9.70;6.00;;;1.90;97.30;;;;;;4999275;28;20519;-89
2021/04/04 00:18:48;;;;;;;16.63;5.93;;;1.80;97.30;;;;;;4999270;28;20177;-89
2021/04/04 00:21:34;;;;;;;8.67;5.30;;;1.80;97.30;;;;;;4992140;28;20209;-89
2021/04/04 00:47:50;;;;;;;10.17;5.63;;;1.40;97.30;;;;;;5257476;23;20485;-90
2021/04/04 00:50:18;;;;;;;11.30;5.57;;;1.40;97.30;;;;;;5028965;28;20451;-91
2021/04/04 00:52:44;;;;;;;10.53;6.03;;;1.30;97.30;;;;;;5018841;28;20841;-88
2021/04/04 00:55:11;;;;;;;8.13;5.00;;;1.30;97.30;;;;;;5018341;28;20455;-88
2021/04/04 00:57:37;;;;;;;9.30;5.60;;;1.20;97.30;;;;;;5018905;28;20419;-87
2021/04/04 01:00:07;;;;;;;11.37;5.60;;;1.20;97.30;;;;;;5018324;28;20522;-87
2021/04/04 01:02:32;;;;;;;12.20;6.57;;;1.20;97.30;;;;;;5018446;28;20427;-88
2021/04/04 01:05:00;;;;;;;9.27;5.87;;;1.10;97.30;;;;;;5018205;28;20481;-88
2021/04/04 01:07:26;;;;;;;12.53;6.30;;;1.10;97.30;;;;;;5018357;28;20179;-88
2021/04/04 01:09:53;;;;;;;9.30;5.80;;;1.00;97.30;;;;;;5018410;28;20454;-88
2021/04/04 01:12:38;;;;;;;9.80;6.33;;;1.00;97.30;;;;;;5018041;28;20426;-88
2021/04/04 01:15:08;;;;;;;11.43;6.50;;;1.00;97.30;;;;;;5018445;28;20465;-88
2021/04/04 01:17:35;;;;;;;14.70;6.20;;;0.90;97.30;;;;;;5017878;28;20430;-88
2021/04/04 01:20:21;;;;;;;7.90;5.67;;;0.90;97.30;;;;;;5017697;28;20443;-87
2021/04/04 01:23:11;;;;;;;11.13;6.57;;;0.90;97.30;;;;;;5017725;28;20420;-89
2021/04/04 01:25:57;;;;;;;11.20;6.87;;;0.80;97.30;;;;;;5019021;28;20437;-89
2021/04/04 01:28:29;;;;;;;10.80;6.57;;;0.80;97.30;;;;;;5036191;28;20434;-89
2021/04/04 01:30:57;;;;;;;9.93;6.00;;;0.80;97.30;;;;;;5018772;28;20826;-89
2021/04/04 01:33:25;;;;;;;10.03;6.30;;;0.80;97.30;;;;;;5035968;28;20429;-89
2021/04/04 01:35:58;;;;;;;12.53;7.10;;;0.70;97.30;;;;;;5018834;28;20492;-89
2021/04/04 01:38:33;;;;;;;15.80;7.30;;;0.70;97.30;;;;;;5019740;28;20522;-89
2021/04/04 01:52:16;;;;;;;13.50;7.53;;;0.50;97.30;;;;;;1663093;23;20754;-89
2021/04/04 01:54:42;;;;;;;11.20;6.67;;;0.50;97.30;;;;;;5036729;28;20538;-90
2021/04/04 01:57:09;;;;;;;10.27;5.57;;;0.50;97.30;;;;;;5038192;28;20426;-90
2021/04/04 01:59:36;;;;;;;8.17;6.33;;;0.40;97.30;;;;;;5034980;28;20516;-90
2021/04/04 02:02:04;;;;;;;9.63;6.03;;;0.40;97.30;;;;;;5036958;28;20427;-90
2021/04/04 02:04:31;;;;;;;11.53;6.30;;;0.40;97.30;;;;;;5036451;28;20415;-90
2021/04/04 02:06:57;;;;;;;8.97;5.60;;;0.40;97.30;;;;;;5018977;28;20427;-90
2021/04/04 02:09:24;;;;;;;12.67;6.33;;;0.40;97.30;;;;;;5018174;28;20488;-89
2021/04/04 02:11:52;;;;;;;11.20;6.33;;;0.30;97.30;;;;;;5018391;28;20480;-90
2021/04/04 02:14:20;;;;;;;10.47;6.30;;;0.30;97.30;;;;;;5018354;28;20455;-90
2021/04/04 02:16:49;;;;;;;14.70;6.37;;;0.20;97.30;;;;;;5036115;28;20411;-90
2021/04/04 02:19:19;;;;;;;8.70;5.33;;;0.20;97.30;;;;;;5017080;28;20415;-90
2021/04/04 02:21:48;;;;;;;12.70;6.33;;;0.20;97.30;;;;;;5017524;28;20411;-89
2021/04/04 02:24:15;;;;;;;9.93;6.23;;;0.20;97.30;;;;;;5017493;28;20509;-91
2021/04/04 02:26:41;;;;;;;10.77;5.73;;;0.20;97.30;;;;;;5016862;28;21002;-90
2021/04/04 02:29:07;;;;;;;12.17;6.80;;;0.20;97.30;;;;;;5016473;28;20459;-91
2021/04/04 02:31:37;;;;;;;8.80;6.23;;;0.10;97.30;;;;;;5016608;28;20207;-90
2021/04/04 02:34:07;;;;;;;10.80;6.97;;;0.10;97.30;;;;;;5016975;28;20433;-90
2021/04/04 02:36:34;;;;;;;10.70;6.40;;;0.10;97.30;;;;;;5020352;28;20428;-90
2021/04/04 02:39:23;;;;;;;10.17;6.27;;;0.10;97.30;;;;;;5019493;28;20434;-90
2021/04/04 02:41:49;;;;;;;10.43;6.63;;;0.00;97.30;;;;;;5004759;28;20412;-90
2021/04/04 02:44:16;;;;;;;11.60;6.37;;;0.00;97.30;;;;;;5016712;28;20416;-90
2021/04/04 02:46:48;;;;;;;9.67;5.90;;;0.00;97.30;;;;;;5017144;28;20429;-90
2021/04/04 02:49:15;;;;;;;12.10;6.47;;;0.00;97.30;;;;;;5016627;28;20404;-90
2021/04/04 02:51:49;;;;;;;10.33;7.00;;;-0.10;97.30;;;;;;5016942;28;20433;-90
2021/04/04 02:54:19;;;;;;;8.50;5.33;;;-0.10;97.30;;;;;;5013034;28;20517;-90
2021/04/04 02:56:48;;;;;;;12.63;6.30;;;-0.10;97.30;;;;;;5012762;28;20531;-90
2021/04/04 02:59:49;;;;;;;10.53;6.60;;;-0.20;97.30;;;;;;5014060;28;20779;-90
2021/04/04 03:02:17;;;;;;;9.53;6.43;;;-0.20;97.30;;;;;;5012452;28;20469;-91
2021/04/04 03:04:47;;;;;;;12.67;6.23;;;-0.20;97.30;;;;;;5016063;28;20427;-91
2021/04/04 03:07:17;;;;;;;12.37;6.10;;;-0.20;97.30;;;;;;5013341;28;20430;-90
2021/04/04 03:09:45;;;;;;;8.90;6.43;;;-0.20;97.30;;;;;;5012553;28;20531;-90
2021/04/04 03:12:13;;;;;;;8.90;6.27;;;-0.20;97.30;;;;;;5012719;28;20474;-90
2021/04/04 03:14:41;;;;;;;11.73;7.07;;;-0.30;97.30;;;;;;5012188;28;20452;-90
2021/04/04 03:17:09;;;;;;;8.70;6.17;;;-0.30;97.30;;;;;;5013248;28;20431;-90
2021/04/04 03:19:37;;;;;;;10.70;6.47;;;-0.30;97.30;;;;;;5011839;28;20440;-91
2021/04/04 03:22:03;;;;;;;7.70;5.80;;;-0.30;97.30;;;;;;5012020;28;20432;-90
2021/04/04 03:24:30;;;;;;;10.57;6.07;;;-0.30;97.30;;;;;;5011796;28;20420;-90
2021/04/04 03:26:56;;;;;;;9.60;6.07;;;-0.40;97.30;;;;;;5013353;28;20442;-90
2021/04/04 03:29:22;;;;;;;10.83;6.20;;;-0.40;97.30;;;;;;5013002;28;20781;-89
2021/04/04 03:31:49;;;;;;;11.63;6.90;;;-0.40;97.30;;;;;;5020565;23;20528;-85
2021/04/04 03:34:17;;;;;;;12.23;6.13;;;-0.50;97.30;;;;;;4975179;28;20599;-86
2021/04/04 03:36:43;;;;;;;11.83;6.10;;;-0.50;97.30;;;;;;4972634;28;20489;-87
2021/04/04 03:39:08;;;;;;;16.80;7.40;;;-0.50;97.30;;;;;;4972303;28;20410;-86
2021/04/04 03:41:35;;;;;;;13.60;7.80;;;-0.60;97.30;;;;;;4972552;28;20866;-86
2021/04/04 03:44:02;;;;;;;13.63;6.97;;;-0.50;97.30;;;;;;4974342;28;20403;-86
2021/04/04 03:46:31;;;;;;;11.77;6.87;;;-0.50;97.30;;;;;;4972789;28;20486;-86
2021/04/04 03:48:59;;;;;;;9.97;6.23;;;-0.50;97.30;;;;;;4974026;28;20484;-86
2021/04/04 03:51:27;;;;;;;19.70;7.90;;;-0.50;97.30;;;;;;4993689;28;20461;-85
2021/04/04 03:53:55;;;;;;;17.53;8.47;;;-0.50;97.30;;;;;;5002360;28;20405;-85
2021/04/04 03:56:27;;;;;;;14.77;7.90;;;-0.60;97.30;;;;;;5004428;28;20484;-86
2021/04/04 03:58:53;;;;;;;17.57;8.77;;;-0.60;97.30;;;;;;5003545;28;20425;-86
2021/04/04 04:01:23;;;;;;;13.83;8.10;;;-0.60;97.30;;;;;;5000275;28;20498;-86
2021/04/04 04:03:50;;;;;;;18.70;7.67;;;-0.60;97.30;;;;;;4995869;28;20496;-85
2021/04/04 04:06:17;;;;;;;14.93;8.17;;;-0.70;97.30;;;;;;4995924;28;20413;-86
2021/04/04 04:08:43;;;;;;;17.53;7.33;;;-0.80;97.30;;;;;;4996421;28;20423;-86
2021/04/04 04:11:11;;;;;;;14.90;8.20;;;-0.80;97.30;;;;;;4995797;28;20453;-86
2021/04/04 04:13:39;;;;;;;14.87;8.20;;;-0.80;97.30;;;;;;4995091;28;20505;-85
2021/04/04 04:16:06;;;;;;;14.10;8.57;;;-0.80;97.30;;;;;;4995164;28;20440;-85
2021/04/04 04:18:33;;;;;;;15.90;8.00;;;-0.80;97.30;;;;;;4994951;28;20434;-85
2021/04/04 04:20:59;;;;;;;17.90;8.73;;;-0.80;97.30;;;;;;4995125;28;20448;-85
2021/04/04 04:23:26;;;;;;;15.90;7.60;;;-0.80;97.30;;;;;;4994871;28;20409;-85
2021/04/04 04:25:54;;;;;;;14.33;8.10;;;-0.80;97.30;;;;;;4994989;28;20425;-86
2021/04/04 04:28:20;;;;;;;19.83;8.80;;;-0.90;97.30;;;;;;4994794;28;20513;-86
2021/04/04 04:30:46;;;;;;;14.07;8.37;;;-0.90;97.30;;;;;;4994549;28;20477;-86
2021/04/04 04:33:16;;;;;;;20.57;10.30;;;-0.90;97.30;;;;;;4995050;28;20440;-84
2021/04/04 04:35:45;;;;;;;16.10;8.60;;;-0.90;97.30;;;;;;4995488;28;20476;-85
2021/04/04 04:38:11;;;;;;;20.73;8.20;;;-0.90;97.30;;;;;;4995787;28;20413;-85
2021/04/04 04:40:38;;;;;;;14.80;8.90;;;-0.90;97.30;;;;;;4995730;28;20441;-86
2021/04/04 04:43:07;;;;;;;19.33;7.60;;;-0.90;97.30;;;;;;4995724;28;20405;-85
2021/04/04 04:45:38;;;;;;;13.03;7.17;;;-0.90;97.30;;;;;;4996972;28;20475;-86
2021/04/04 04:48:05;;;;;;;17.10;7.27;;;-0.90;97.30;;;;;;4997089;28;20412;-85
2021/04/04 04:50:31;;;;;;;14.80;7.40;;;-1.00;97.30;;;;;;4996066;28;21040;-86
2021/04/04 04:53:02;;;;;;;12.23;7.63;;;-1.00;97.30;;;;;;4996317;28;20469;-85
2021/04/04 04:55:28;;;;;;;12.23;6.73;;;-1.00;97.30;;;;;;4996632;28;20205;-85
2021/04/04 04:57:55;;;;;;;11.80;7.30;;;-1.00;97.30;;;;;;4997266;28;20452;-85
2021/04/04 05:00:22;;;;;;;14.03;8.03;;;-1.00;97.30;;;;;;4996471;28;20416;-85
2021/04/04 05:02:48;;;;;;;13.43;7.17;;;-1.00;97.30;;;;;;4995633;28;20417;-86
2021/04/04 05:05:16;;;;;;;13.13;7.40;;;-1.00;97.30;;;;;;4996838;28;20996;-86
2021/04/04 05:07:44;;;;;;;15.93;8.00;;;-1.00;97.30;;;;;;4995397;28;20178;-86
2021/04/04 05:10:12;;;;;;;14.03;7.50;;;-0.90;97.30;;;;;;4996556;28;20423;-86
2021/04/04 05:12:59;;;;;;;18.53;9.57;;;-0.90;97.30;;;;;;4996126;28;20441;-85
2021/04/04 05:15:26;;;;;;;17.30;9.83;;;-0.90;97.30;;;;;;4995998;28;20459;-86
2021/04/04 05:17:52;;;;;;;17.47;8.67;;;-0.90;97.30;;;;;;4996808;28;20425;-86
2021/04/04 05:20:19;;;;;;;17.83;9.47;;;-0.90;97.30;;;;;;4996589;28;20487;-85
2021/04/04 05:22:45;;;;;;;14.93;8.90;;;-0.80;97.30;;;;;;4997077;28;20428;-85
2021/04/04 05:25:11;;;;;;;13.30;7.90;;;-0.80;97.30;;;;;;4995919;28;20417;-86
2021/04/04 05:27:37;;;;;;;20.80;8.77;;;-0.70;97.30;;;;;;4996048;28;20560;-86
2021/04/04 05:30:10;;;;;;;12.20;8.07;;;-0.70;97.30;;;;;;4995856;28;20496;-85
2021/04/04 05:32:48;;;;;;;13.80;8.17;;;-0.60;97.30;;;;;;4996052;28;20230;-86
2021/04/04 05:35:19;;;;;;;14.60;7.77;;;-0.50;97.30;;;;;;4995631;28;20551;-86
2021/04/04 05:37:46;;;;;;;14.63;8.20;;;-0.50;97.30;;;;;;4995899;28;20420;-84
2021/04/04 05:40:19;;;;;;;15.77;8.10;;;-0.40;97.30;;;;;;4997011;28;20440;-85
2021/04/04 05:42:59;;;;;;;14.03;8.07;;;-0.30;97.30;;;;;;4991435;28;20952;-86
2021/04/04 05:45:47;;;;;;;14.97;8.50;;;-0.20;97.30;;;;;;4993512;28;20436;-86
2021/04/04 05:48:34;;;;;;;11.60;7.80;;;-0.20;97.30;;;;;;4993395;28;20559;-86
2021/04/04 05:51:16;;;;;;;14.93;7.37;;;-0.10;97.30;;;;;;5002381;28;20979;-86
2021/04/04 05:54:05;;;;;;;17.30;8.53;;;0.00;97.30;;;;;;5006909;28;20476;-86
2021/04/04 05:56:54;;;;;;;17.27;8.60;;;0.10;97.30;;;;;;4973852;28;20458;-85
2021/04/04 05:59:28;;;;;;;13.50;6.70;;;0.20;97.30;;;;;;4987843;28;20515;-87
2021/04/04 06:02:18;;;;;;;14.83;7.77;;;0.30;97.30;;;;;;5006013;28;21054;-86
2021/04/04 06:04:52;;;;;;;15.13;6.83;;;0.40;97.30;;;;;;5003280;28;20421;-86
2021/04/04 06:07:21;;;;;;;12.30;6.67;;;0.50;97.30;;;;;;4985367;28;20451;-87
2021/04/04 06:10:17;;;;;;;9.03;6.27;;;0.70;97.30;;;;;;4996923;28;20443;-86
2021/04/04 06:12:57;;;;;;;10.57;5.90;;;0.80;97.30;;;;;;4988794;28;20413;-86
2021/04/04 06:15:25;;;;;;;9.77;5.70;;;1.00;97.30;;;;;;4985932;28;20458;-86
2021/04/04 06:18:19;;;;;;;10.10;5.33;;;1.20;97.30;;;;;;4980449;28;20950;-87
2021/04/04 06:20:56;;;;;;;12.23;5.50;;;1.40;97.30;;;;;;4985292;28;20440;-85
2021/04/04 06:23:30;;;;;;;10.67;5.43;;;1.60;97.30;;;;;;4987530;28;20419;-86
2021/04/04 06:26:23;;;;;;;11.83;5.50;;;1.80;97.30;;;;;;4988065;28;20419;-86
2021/04/04 06:29:02;;;;;;;9.93;4.70;;;1.90;97.30;;;;;;4982794;28;20422;-86
2021/04/04 06:31:46;;;;;;;7.97;4.90;;;2.10;97.30;;;;;;4984218;28;20600;-86
2021/04/04 06:34:17;;;;;;;10.40;4.70;;;2.30;97.30;;;;;;4985877;28;20413;-85
2021/04/04 06:36:54;;;;;;;9.73;5.13;;;2.50;97.30;;;;;;4988555;28;20418;-85
2021/04/04 06:39:43;;;;;;;7.27;4.33;;;2.60;97.30;;;;;;4984615;28;20502;-85
2021/04/04 06:42:14;;;;;;;11.73;4.60;;;2.80;97.30;;;;;;4980886;28;20468;-86
2021/04/04 06:45:11;;;;;;;6.90;4.20;;;3.00;97.30;;;;;;4982999;28;20804;-85
2021/04/04 06:47:45;;;;;;;6.50;3.80;;;3.20;97.30;;;;;;4984524;28;20422;-85
2021/04/04 06:50:17;;;;;;;6.03;3.87;;;3.40;97.30;;;;;;4981405;28;20429;-85
2021/04/04 06:53:18;;;;;;;6.50;4.20;;;3.50;96.20;;;;;;4985625;28;20438;-85
2021/04/04 06:56:08;;;;;;;5.47;4.30;;;3.70;96.20;;;;;;4991345;28;20453;-86
2021/04/04 06:58:42;;;;;;;9.70;3.60;;;3.80;95.50;;;;;;4991808;28;20405;-85
2021/04/04 07:01:46;;;;;;;11.50;4.70;;;4.00;95.00;;;;;;4986295;28;21190;-85
2021/04/04 07:04:23;;;;;;;8.80;3.80;;;4.10;94.10;;;;;;4986603;28;20417;-86
2021/04/04 07:07:14;;;;;;;7.53;3.80;;;4.20;94.20;;;;;;4979479;28;20413;-86
2021/04/04 07:10:04;;;;;;;7.40;3.87;;;4.30;94.40;;;;;;4983560;28;20508;-86
2021/04/04 07:12:57;;;;;;;10.20;3.67;;;4.40;94.20;;;;;;4982552;28;20441;-85
2021/04/04 07:15:35;;;;;;;10.50;4.10;;;4.40;92.90;;;;;;4989188;28;20445;-86
2021/04/04 07:18:27;;;;;;;12.67;4.53;;;4.60;93.30;;;;;;4992135;28;20441;-85
2021/04/04 07:21:20;;;;;;;14.87;5.63;;;4.70;93.00;;;;;;4989228;28;20452;-85
2021/04/04 07:23:53;;;;;;;6.90;4.40;;;4.80;93.60;;;;;;4986677;28;20413;-86
2021/04/04 07:26:38;;;;;;;9.93;4.53;;;4.80;93.80;;;;;;4994746;28;20725;-85
2021/04/04 07:29:27;;;;;;;15.10;5.60;;;4.90;94.10;;;;;;4996579;28;20427;-87
2021/04/04 07:32:25;;;;;;;15.50;5.70;;;5.10;95.10;;;;;;5009764;28;20472;-87
2021/04/04 07:34:57;;;;;;;9.33;5.67;;;5.10;95.10;;;;;;5007490;28;20492;-88
2021/04/04 07:37:50;;;;;;;15.43;5.97;;;5.30;96.20;;;;;;5007916;28;20799;-85
2021/04/04 07:40:30;;;;;;;11.33;5.37;;;5.30;97.20;;;;;;5011914;28;20425;-87
2021/04/04 07:43:10;;;;;;;18.63;6.50;;;5.40;97.30;;;;;;5011678;28;20412;-87
2021/04/04 07:45:46;;;;;;;15.53;6.23;;;5.50;97.30;;;;;;5007947;28;20432;-87
2021/04/04 07:48:32;;;;;;;18.63;6.60;;;5.50;96.70;;;;;;4996177;28;20510;-86
2021/04/04 07:51:08;;;;;;;14.67;7.00;;;5.50;96.90;;;;;;5005806;28;20441;-87
2021/04/04 07:54:01;;;;;;;16.57;6.00;;;5.60;97.30;;;;;;5015065;28;20439;-84
2021/04/04 07:57:08;;;;;;;30.83;8.43;;;5.70;97.10;;;;;;5007581;28;20456;-84
2021/04/04 07:59:50;;;;;;;15.77;6.33;;;5.80;97.00;;;;;;5001858;28;20451;-87
2021/04/04 08:02:15;;;;;;;16.17;6.17;;;6.00;97.00;;;;;;5008912;28;20818;-87
2021/04/04 08:05:01;;;;;;;21.03;7.00;;;6.10;96.70;;;;;;5001294;28;20431;-86
2021/04/04 08:07:38;;;;;;;15.57;6.80;;;6.30;96.20;;;;;;4999024;28;20188;-87
2021/04/04 08:10:12;;;;;;;14.70;7.57;;;6.30;96.00;;;;;;4999560;28;20431;-86
2021/04/04 08:13:03;;;;;;;26.00;7.83;;;6.30;96.20;;;;;;4999034;28;20868;-86
2021/04/04 08:15:53;;;;;;;28.17;7.97;;;6.40;96.00;;;;;;5000958;28;20479;-86
2021/04/04 08:18:19;;;;;;;18.93;7.87;;;6.40;96.00;;;;;;4995607;28;20803;-87
2021/04/04 08:20:48;;;;;;;12.23;5.80;;;6.50;95.80;;;;;;4989697;28;20433;-87
2021/04/04 08:23:47;;;;;;;21.53;7.27;;;6.50;96.10;;;;;;5011976;28;20217;-86
2021/04/04 08:26:43;;;;;;;23.57;7.57;;;6.60;96.30;;;;;;4997158;28;20460;-85
2021/04/04 08:29:14;;;;;;;18.10;7.43;;;6.70;95.90;;;;;;4980682;28;20438;-86
2021/04/04 08:31:48;;;;;;;18.90;7.17;;;6.90;95.70;;;;;;4995382;28;20464;-87
2021/04/04 08:34:50;;;;;;;20.90;7.13;;;6.90;95.40;;;;;;4995224;28;20425;-88
2021/04/04 08:37:28;;;;;;;11.67;6.27;;;7.10;95.30;;;;;;4986347;28;20456;-89
2021/04/04 08:40:00;;;;;;;21.67;7.70;;;7.20;95.90;;;;;;4987900;28;20401;-89
2021/04/04 08:43:05;;;;;;;17.47;7.00;;;7.40;95.20;;;;;;4996314;28;20977;-88
2021/04/04 08:45:45;;;;;;;18.73;7.00;;;7.10;94.00;;;;;;4995874;28;20507;-88
2021/04/04 08:48:14;;;;;;;23.00;8.20;;;7.10;94.50;;;;;;4995232;28;20415;-89
2021/04/04 08:50:43;;;;;;;25.17;8.50;;;7.20;94.90;;;;;;4996334;28;20453;-88
2021/04/04 08:53:18;;;;;;;16.80;7.53;;;7.40;94.50;;;;;;4995634;28;20507;-88
2021/04/04 08:55:46;;;;;;;21.80;7.30;;;7.60;94.40;;;;;;4995147;28;21023;-89
2021/04/04 08:58:16;;;;;;;26.07;7.70;;;7.70;93.50;;;;;;4994540;28;20425;-88
2021/04/04 09:00:42;;;;;;;26.90;8.13;;;7.70;92.80;;;;;;4995223;28;20440;-86
2021/04/04 09:03:20;;;;;;;20.27;7.77;;;7.70;92.70;;;;;;4994172;28;20472;-89
2021/04/04 09:05:47;;;;;;;17.87;8.00;;;7.60;93.00;;;;;;4982333;28;20436;-89
2021/04/04 09:08:15;;;;;;;26.40;8.63;;;7.70;93.40;;;;;;4995858;28;20815;-89
2021/04/04 09:10:44;;;;;;;24.20;7.63;;;8.10;92.90;;;;;;4994944;28;20660;-88
2021/04/04 09:13:13;;;;;;;20.17;8.90;;;8.30;91.90;;;;;;4989066;28;20903;-86
2021/04/04 09:16:15;;;;;;;23.20;8.10;;;8.50;91.80;;;;;;4995923;28;20511;-87
2021/04/04 09:18:49;;;;;;;15.50;7.40;;;8.50;89.10;;;;;;4995282;28;20438;-88
2021/04/04 09:21:15;;;;;;;26.43;8.40;;;8.30;90.00;;;;;;4993985;28;20441;-88
2021/04/04 09:23:45;;;;;;;18.73;8.53;;;8.10;91.10;;;;;;4992925;28;20421;-88
2021/04/04 09:26:17;;;;;;;20.80;8.93;;;8.10;90.90;;;;;;4992192;28;20436;-88
2021/04/04 09:28:43;;;;;;;17.50;8.63;;;8.00;91.20;;;;;;4993977;28;20421;-88
2021/04/04 09:31:24;;;;;;;23.40;9.10;;;7.90;91.70;;;;;;4987549;28;20778;-86
2021/04/04 09:34:15;;;;;;;25.67;8.80;;;7.90;90.90;;;;;;4988896;28;20183;-86
2021/04/04 09:36:44;;;;;;;21.90;8.90;;;8.00;91.20;;;;;;4998847;28;20479;-86
2021/04/04 09:39:13;;;;;;;22.80;8.77;;;8.20;91.10;;;;;;4994713;28;20939;-86
2021/04/04 09:41:40;;;;;;;21.00;9.33;;;8.50;90.70;;;;;;5037559;23;20908;-77
2021/04/04 09:44:07;;;;;;;20.53;9.40;;;8.60;90.00;;;;;;5022839;28;20447;-77
2021/04/04 09:46:33;;;;;;;21.23;8.40;;;8.70;89.80;;;;;;5013027;28;20429;-78
2021/04/04 09:48:59;;;;;;;17.70;9.57;;;8.70;89.90;;;;;;5011859;28;20459;-77
2021/04/04 09:51:25;;;;;;;26.67;10.33;;;8.60;89.90;;;;;;5011137;28;20247;-78
2021/04/04 09:53:53;;;;;;;25.57;10.70;;;8.60;89.80;;;;;;4997749;28;20425;-77
2021/04/04 09:56:37;;;;;;;19.70;9.10;;;8.60;89.70;;;;;;5002265;28;20460;-79
2021/04/04 09:59:03;;;;;;;21.23;8.83;;;8.80;89.40;;;;;;5010065;28;20424;-79
2021/04/04 10:01:32;;;;;;;14.57;7.67;;;8.80;88.10;;;;;;5000469;28;20450;-78
2021/04/04 10:04:06;;;;;;;20.47;8.00;;;8.80;88.00;;;;;;4994431;28;20200;-78
2021/04/04 10:06:34;;;;;;;20.20;10.10;;;8.90;87.10;;;;;;4985640;28;20435;-79
2021/04/04 10:09:05;;;;;;;20.37;10.40;;;9.10;87.50;;;;;;5011475;28;20432;-79
2021/04/04 10:11:33;;;;;;;26.27;8.80;;;9.20;86.90;;;;;;4999156;28;20608;-78
2021/04/04 10:14:13;;;;;;;31.00;8.43;;;9.40;87.30;;;;;;4990053;28;20473;-78
2021/04/04 10:16:40;;;;;;;21.83;9.33;;;9.60;87.10;;;;;;5006142;28;20463;-79
2021/04/04 10:19:10;;;;;;;21.77;9.43;;;9.50;86.60;;;;;;5002098;28;20425;-78
2021/04/04 10:21:38;;;;;;;24.10;8.63;;;9.40;86.40;;;;;;5004575;28;20782;-78
2021/04/04 10:24:27;;;;;;;28.93;9.03;;;9.40;86.30;;;;;;5002619;28;20425;-79
2021/04/04 10:27:28;;;;;;;27.00;8.83;;;9.50;86.40;;;;;;4990736;28;20417;-79
2021/04/04 10:30:06;;;;;;;23.57;9.87;;;9.50;87.10;;;;;;4996844;28;20922;-79
2021/04/04 10:32:31;;;;;;;21.07;8.77;;;9.50;87.10;;;;;;5000641;28;20492;-78
2021/04/04 10:34:59;;;;;;;24.40;8.90;;;9.40;87.10;;;;;;4998024;28;20581;-78
2021/04/04 10:37:28;;;;;;;15.37;7.70;;;9.30;87.30;;;;;;5010282;28;20499;-79
2021/04/04 10:40:10;;;;;;;21.20;9.90;;;9.20;87.50;;;;;;5010511;28;20518;-79
2021/04/04 10:42:38;;;;;;;25.53;9.00;;;9.40;87.60;;;;;;5009729;28;20474;-78
2021/04/04 10:45:15;;;;;;;21.33;9.50;;;9.60;87.50;;;;;;5000286;28;20424;-79
2021/04/04 10:47:44;;;;;;;23.10;8.73;;;9.80;86.40;;;;;;5007256;28;20430;-79
2021/04/04 10:50:13;;;;;;;25.20;9.40;;;9.80;85.80;;;;;;4992544;28;20937;-80
2021/04/04 10:52:42;;;;;;;22.73;9.40;;;9.80;85.90;;;;;;4997143;28;20452;-79
2021/04/04 10:55:09;;;;;;;24.80;9.47;;;9.90;85.70;;;;;;5007916;28;20448;-79
2021/04/04 10:57:37;;;;;;;23.33;9.87;;;9.90;86.10;;;;;;4992811;28;20425;-79
2021/04/04 11:00:08;;;;;;;22.80;9.90;;;9.90;86.50;;;;;;4998580;28;20483;-79
2021/04/04 11:02:38;;;;;;;26.53;10.00;;;9.90;86.30;;;;;;4999390;28;20445;-79
2021/04/04 11:05:07;;;;;;;25.07;10.17;;;9.80;86.30;;;;;;5005048;28;20428;-79
2021/04/04 11:07:34;;;;;;;21.27;8.60;;;9.70;86.70;;;;;;4999095;28;20499;-79
2021/04/04 11:10:01;;;;;;;25.83;8.70;;;9.90;86.70;;;;;;4990251;28;20943;-79
2021/04/04 11:12:31;;;;;;;16.27;8.80;;;9.80;86.10;;;;;;4988336;28;20440;-79
2021/04/04 11:14:58;;;;;;;19.70;9.20;;;9.90;86.10;;;;;;4993046;28;20452;-79
2021/04/04 11:17:25;;;;;;;22.17;9.50;;;10.00;85.40;;;;;;4980239;28;20512;-79
2021/04/04 11:19:51;;;;;;;21.33;9.40;;;9.90;84.60;;;;;;4991483;28;20417;-79
2021/04/04 11:22:22;;;;;;;24.20;8.83;;;9.90;85.00;;;;;;4992577;28;20437;-79
2021/04/04 11:25:02;;;;;;;24.97;10.47;;;10.00;84.00;;;;;;4997704;28;20451;-80
2021/04/04 11:27:55;;;;;;;28.20;9.50;;;10.20;84.70;;;;;;5002046;28;20431;-78
2021/04/04 11:30:27;;;;;;;16.77;9.00;;;10.40;84.50;;;;;;4988289;28;20461;-80
2021/04/04 11:33:19;;;;;;;27.73;14.30;;;10.50;84.30;;;;;;4990600;28;20488;-79
2021/04/04 11:36:11;;;;;;;17.50;9.53;;;10.60;84.80;;;;;;4991934;28;20477;-80
2021/04/04 11:38:56;;;;;;;26.90;8.60;;;10.50;84.90;;;;;;4991461;28;20432;-79
2021/04/04 11:41:24;;;;;;;20.73;9.27;;;10.50;85.10;;;;;;4992637;28;20830;-79
2021/04/04 11:44:13;;;;;;;25.57;9.10;;;10.40;84.40;;;;;;4994254;28;20482;-80
2021/04/04 11:46:50;;;;;;;17.70;8.27;;;10.40;84.20;;;;;;5006376;28;20440;-79
2021/04/04 11:49:42;;;;;;;22.83;8.13;;;10.40;84.10;;;;;;4992513;28;20436;-80
2021/04/04 11:52:10;;;;;;;22.17;8.10;;;10.40;83.10;;;;;;4993121;28;20458;-80
2021/04/04 11:54:46;;;;;;;18.40;8.80;;;10.50;83.10;;;;;;4993689;28;20463;-79
2021/04/04 11:57:20;;;;;;;20.83;8.07;;;10.50;83.30;;;;;;5009586;28;20407;-80
2021/04/04 11:59:51;;;;;;;19.00;8.30;;;10.60;83.60;;;;;;4994180;28;20419;-80
2021/04/04 12:02:21;;;;;;;18.43;7.77;;;10.60;82.40;;;;;;5015743;28;20439;-80
2021/04/04 12:05:06;;;;;;;19.87;8.50;;;10.60;82.60;;;;;;4993661;28;20420;-80
2021/04/04 12:07:33;;;;;;;19.63;7.83;;;10.40;82.30;;;;;;5019980;28;20420;-80
2021/04/04 12:10:00;;;;;;;19.43;8.40;;;10.30;82.50;;;;;;4988201;28;21023;-80
2021/04/04 12:12:33;;;;;;;15.50;7.70;;;10.30;83.00;;;;;;4990785;28;20461;-80
2021/04/04 12:15:00;;;;;;;13.27;7.70;;;10.40;83.00;;;;;;5011022;28;20462;-80
2021/04/04 12:17:29;;;;;;;18.30;8.30;;;10.50;83.10;;;;;;4995901;28;20416;-80
2021/04/04 12:20:08;;;;;;;;;;;;;;;;;;;;;
2021/04/04 12:22:44;;;;;;;16.93;8.10;;;10.50;83.00;;;;;;5014874;28;20470;-80
2021/04/04 12:25:15;;;;;;;18.60;8.03;;;10.60;83.50;;;;;;5007470;28;20972;-80
2021/04/04 12:27:43;;;;;;;22.83;9.53;;;10.60;83.30;;;;;;4995299;28;20506;-80
2021/04/04 12:30:27;;;;;;;18.30;9.00;;;10.50;83.30;;;;;;4997394;28;20782;-79
2021/04/04 12:33:20;;;;;;;23.83;8.93;;;10.40;82.90;;;;;;5009510;28;20424;-80
2021/04/04 12:35:51;;;;;;;15.17;7.50;;;10.30;83.80;;;;;;4994147;28;20468;-80
2021/04/04 12:38:22;;;;;;;22.73;8.97;;;10.40;83.80;;;;;;4998381;28;20450;-80
2021/04/04 12:40:50;;;;;;;22.73;9.03;;;10.50;83.30;;;;;;5013797;28;20451;-79
2021/04/04 12:43:17;;;;;;;16.03;8.23;;;10.50;83.00;;;;;;4982396;28;20499;-80
2021/04/04 12:45:45;;;;;;;19.60;7.87;;;10.50;83.10;;;;;;4985848;28;20422;-79
2021/04/04 12:48:22;;;;;;;15.67;8.87;;;10.50;83.00;;;;;;4997299;28;20520;-76
2021/04/04 12:50:50;;;;;;;26.63;9.63;;;10.60;83.40;;;;;;4994015;28;20960;-78
2021/04/04 12:53:23;;;;;;;20.70;9.17;;;10.80;82.80;;;;;;4994338;28;20420;-79
2021/04/04 12:55:49;;;;;;;18.83;8.90;;;11.20;83.20;;;;;;4991403;28;20475;-77
2021/04/04 12:58:15;;;;;;;25.27;8.63;;;11.60;81.10;;;;;;5000089;28;20452;-77
2021/04/04 13:00:43;;;;;;;19.57;9.67;;;12.30;80.80;;;;;;5010094;28;20472;-77
2021/04/04 13:03:11;;;;;;;21.93;9.73;;;12.80;79.20;;;;;;5011398;28;20272;-76
2021/04/04 13:05:50;;;;;;;28.70;8.77;;;12.40;77.40;;;;;;5011900;28;20633;-76
2021/04/04 13:08:26;;;;;;;28.00;10.30;;;11.80;78.70;;;;;;5000516;28;20436;-76
2021/04/04 13:10:58;;;;;;;19.23;8.87;;;11.80;79.80;;;;;;5004574;28;20538;-78
2021/04/04 13:13:45;;;;;;;23.80;11.73;;;12.20;79.20;;;;;;5010908;28;20914;-77
2021/04/04 13:16:16;;;;;;;26.00;10.33;;;11.90;78.30;;;;;;4997615;28;20464;-78
2021/04/04 13:18:44;;;;;;;17.93;9.67;;;12.10;79.50;;;;;;4991741;28;20472;-77
2021/04/04 13:21:23;;;;;;;17.87;8.57;;;12.50;78.60;;;;;;4993651;28;20475;-79
2021/04/04 13:23:54;;;;;;;16.40;10.03;;;12.60;77.10;;;;;;4993831;28;20417;-80
2021/04/04 13:26:23;;;;;;;22.43;9.93;;;12.40;77.10;;;;;;4997011;28;20778;-77
2021/04/04 13:29:19;;;;;;;20.47;10.03;;;12.00;77.00;;;;;;4992575;28;20495;-79
2021/04/04 13:31:53;;;;;;;21.27;9.43;;;11.80;77.90;;;;;;4990143;28;20456;-77
2021/04/04 13:34:22;;;;;;;23.53;9.47;;;12.10;77.60;;;;;;5011266;28;20442;-78
2021/04/04 13:36:56;;;;;;;21.83;8.40;;;12.60;76.90;;;;;;5002157;28;20452;-79
2021/04/04 13:39:41;;;;;;;13.10;7.53;;;12.80;75.90;;;;;;5010572;28;20459;-77
2021/04/04 13:42:08;;;;;;;18.90;8.40;;;12.60;76.10;;;;;;5011231;28;21000;-79
2021/04/04 13:44:44;;;;;;;23.23;8.80;;;12.90;77.10;;;;;;5010626;28;20420;-78
2021/04/04 13:47:24;;;;;;;30.07;9.60;;;13.00;75.40;;;;;;4984346;28;20417;-78
2021/04/04 13:49:50;;;;;;;15.23;7.27;;;12.80;75.10;;;;;;4977318;28;20540;-78
2021/04/04 13:52:16;;;;;;;14.20;7.90;;;12.70;75.10;;;;;;4992549;28;20460;-79
2021/04/04 13:54:44;;;;;;;19.97;8.97;;;12.70;75.50;;;;;;4991595;28;20409;-78